sensor_id;sensor_type;location;lat;lon;timestamp;P1;durP1;ratioP1;P2;durP2;ratioP2
6207;SDS011;3137;51.550;7.060;2022-09-09T00:00:47;0.73;;;0.73;;
6207;SDS011;3137;51.550;7.060;2022-09-09T00:03:24;0.70;;;0.70;;
6207;SDS011;3137;51.550;7.060;2022-09-09T00:09:19;0.83;;;0.83;;
6207;SDS011;3137;51.550;7.060;2022-09-09T00:11:24;0.93;;;0.93;;
6207;SDS011;3137;51.550;7.060;2022-09-09T00:13:57;0.80;;;0.80;;
6207;SDS011;3137;51.550;7.060;2022-09-09T00:16:27;1.00;;;1.00;;
6207;SDS011;3137;51.550;7.060;2022-09-09T00:24:38;1.00;;;1.00;;
6207;SDS011;3137;51.550;7.060;2022-09-09T00:27:14;2.63;;;1.20;;
6207;SDS011;3137;51.550;7.060;2022-09-09T00:29:52;1.10;;;1.10;;
6207;SDS011;3137;51.550;7.060;2022-09-09T00:32:22;1.00;;;1.00;;
6207;SDS011;3137;51.550;7.060;2022-09-09T00:34:58;1.60;;;1.30;;
6207;SDS011;3137;51.550;7.060;2022-09-09T00:37:26;0.90;;;0.90;;
6207;SDS011;3137;51.550;7.060;2022-09-09T00:39:55;1.27;;;0.80;;
6207;SDS011;3137;51.550;7.060;2022-09-09T00:42:30;1.13;;;1.00;;
6207;SDS011;3137;51.550;7.060;2022-09-09T00:47:50;1.00;;;1.00;;
6207;SDS011;3137;51.550;7.060;2022-09-09T00:50:27;0.73;;;0.73;;
6207;SDS011;3137;51.550;7.060;2022-09-09T00:58:26;0.83;;;0.83;;
6207;SDS011;3137;51.550;7.060;2022-09-09T01:00:57;2.93;;;0.80;;
6207;SDS011;3137;51.550;7.060;2022-09-09T01:03:34;10.40;;;1.10;;
6207;SDS011;3137;51.550;7.060;2022-09-09T01:06:22;0.70;;;0.70;;
6207;SDS011;3137;51.550;7.060;2022-09-09T01:11:24;2.00;;;1.10;;
6207;SDS011;3137;51.550;7.060;2022-09-09T01:13:58;2.07;;;1.17;;
6207;SDS011;3137;51.550;7.060;2022-09-09T01:16:30;1.50;;;1.20;;
6207;SDS011;3137;51.550;7.060;2022-09-09T01:18:58;1.20;;;1.20;;
6207;SDS011;3137;51.550;7.060;2022-09-09T01:24:46;1.40;;;0.83;;
6207;SDS011;3137;51.550;7.060;2022-09-09T01:27:35;1.80;;;1.10;;
6207;SDS011;3137;51.550;7.060;2022-09-09T01:30:07;0.60;;;0.60;;
6207;SDS011;3137;51.550;7.060;2022-09-09T01:32:42;1.20;;;1.20;;
6207;SDS011;3137;51.550;7.060;2022-09-09T01:35:15;1.00;;;1.00;;
6207;SDS011;3137;51.550;7.060;2022-09-09T01:37:57;0.90;;;0.90;;
6207;SDS011;3137;51.550;7.060;2022-09-09T01:40:24;1.00;;;1.00;;
6207;SDS011;3137;51.550;7.060;2022-09-09T01:42:52;1.97;;;1.80;;
6207;SDS011;3137;51.550;7.060;2022-09-09T01:45:19;1.57;;;1.57;;
6207;SDS011;3137;51.550;7.060;2022-09-09T01:47:47;1.40;;;1.40;;
6207;SDS011;3137;51.550;7.060;2022-09-09T01:50:19;1.70;;;1.67;;
6207;SDS011;3137;51.550;7.060;2022-09-09T01:52:48;2.47;;;1.70;;
6207;SDS011;3137;51.550;7.060;2022-09-09T01:55:25;1.17;;;1.17;;
6207;SDS011;3137;51.550;7.060;2022-09-09T02:00:26;1.87;;;1.87;;
6207;SDS011;3137;51.550;7.060;2022-09-09T02:08:03;1.70;;;1.70;;
6207;SDS011;3137;51.550;7.060;2022-09-09T02:10:48;1.60;;;1.60;;
6207;SDS011;3137;51.550;7.060;2022-09-09T02:13:43;6.63;;;1.93;;
6207;SDS011;3137;51.550;7.060;2022-09-09T02:16:18;5.70;;;1.53;;
6207;SDS011;3137;51.550;7.060;2022-09-09T02:18:48;1.10;;;1.10;;
6207;SDS011;3137;51.550;7.060;2022-09-09T02:21:29;3.43;;;1.60;;
6207;SDS011;3137;51.550;7.060;2022-09-09T02:23:57;2.47;;;1.10;;
6207;SDS011;3137;51.550;7.060;2022-09-09T02:26:28;1.60;;;1.60;;
6207;SDS011;3137;51.550;7.060;2022-09-09T02:29:01;1.90;;;1.50;;
6207;SDS011;3137;51.550;7.060;2022-09-09T02:31:31;1.60;;;1.50;;
6207;SDS011;3137;51.550;7.060;2022-09-09T02:34:02;1.10;;;1.10;;
6207;SDS011;3137;51.550;7.060;2022-09-09T02:36:31;1.60;;;1.60;;
6207;SDS011;3137;51.550;7.060;2022-09-09T02:38:59;1.20;;;1.20;;
6207;SDS011;3137;51.550;7.060;2022-09-09T02:41:31;1.60;;;1.60;;
6207;SDS011;3137;51.550;7.060;2022-09-09T02:44:00;1.40;;;1.30;;
6207;SDS011;3137;51.550;7.060;2022-09-09T02:46:58;1.33;;;1.30;;
6207;SDS011;3137;51.550;7.060;2022-09-09T02:52:30;1.40;;;1.40;;
6207;SDS011;3137;51.550;7.060;2022-09-09T02:55:08;1.10;;;1.10;;
6207;SDS011;3137;51.550;7.060;2022-09-09T02:57:52;1.40;;;1.40;;
6207;SDS011;3137;51.550;7.060;2022-09-09T03:00:26;1.30;;;1.30;;
6207;SDS011;3137;51.550;7.060;2022-09-09T03:02:58;1.50;;;1.37;;
6207;SDS011;3137;51.550;7.060;2022-09-09T03:05:25;1.10;;;1.10;;
6207;SDS011;3137;51.550;7.060;2022-09-09T03:07:52;1.37;;;1.37;;
6207;SDS011;3137;51.550;7.060;2022-09-09T03:10:19;1.97;;;1.77;;
6207;SDS011;3137;51.550;7.060;2022-09-09T03:12:46;1.40;;;1.40;;
6207;SDS011;3137;51.550;7.060;2022-09-09T03:15:12;1.53;;;1.40;;
6207;SDS011;3137;51.550;7.060;2022-09-09T03:17:39;3.50;;;1.73;;
6207;SDS011;3137;51.550;7.060;2022-09-09T03:20:05;3.17;;;1.30;;
6207;SDS011;3137;51.550;7.060;2022-09-09T03:22:32;1.30;;;1.20;;
6207;SDS011;3137;51.550;7.060;2022-09-09T03:24:59;1.20;;;1.20;;
6207;SDS011;3137;51.550;7.060;2022-09-09T03:27:27;1.50;;;1.40;;
6207;SDS011;3137;51.550;7.060;2022-09-09T03:29:53;2.97;;;1.93;;
6207;SDS011;3137;51.550;7.060;2022-09-09T03:32:22;4.20;;;1.40;;
6207;SDS011;3137;51.550;7.060;2022-09-09T03:34:52;2.67;;;1.73;;
6207;SDS011;3137;51.550;7.060;2022-09-09T03:37:18;1.57;;;1.57;;
6207;SDS011;3137;51.550;7.060;2022-09-09T03:39:48;1.60;;;1.50;;
6207;SDS011;3137;51.550;7.060;2022-09-09T03:42:15;1.80;;;1.77;;
6207;SDS011;3137;51.550;7.060;2022-09-09T03:44:47;1.20;;;1.20;;
6207;SDS011;3137;51.550;7.060;2022-09-09T03:47:20;5.40;;;2.43;;
6207;SDS011;3137;51.550;7.060;2022-09-09T03:49:49;1.83;;;1.70;;
6207;SDS011;3137;51.550;7.060;2022-09-09T03:52:16;1.83;;;1.73;;
6207;SDS011;3137;51.550;7.060;2022-09-09T03:54:49;2.93;;;2.70;;
6207;SDS011;3137;51.550;7.060;2022-09-09T03:57:15;3.70;;;2.80;;
6207;SDS011;3137;51.550;7.060;2022-09-09T03:59:43;6.17;;;3.30;;
6207;SDS011;3137;51.550;7.060;2022-09-09T04:02:09;3.50;;;3.20;;
6207;SDS011;3137;51.550;7.060;2022-09-09T04:04:36;9.90;;;3.17;;
6207;SDS011;3137;51.550;7.060;2022-09-09T04:07:03;3.50;;;3.07;;
6207;SDS011;3137;51.550;7.060;2022-09-09T04:09:32;10.63;;;2.57;;
6207;SDS011;3137;51.550;7.060;2022-09-09T04:11:59;2.50;;;2.40;;
6207;SDS011;3137;51.550;7.060;2022-09-09T04:14:25;1.90;;;1.80;;
6207;SDS011;3137;51.550;7.060;2022-09-09T04:16:54;7.23;;;2.10;;
6207;SDS011;3137;51.550;7.060;2022-09-09T04:19:24;2.10;;;2.00;;
6207;SDS011;3137;51.550;7.060;2022-09-09T04:21:51;1.90;;;1.90;;
6207;SDS011;3137;51.550;7.060;2022-09-09T04:24:19;1.70;;;1.70;;
6207;SDS011;3137;51.550;7.060;2022-09-09T04:26:47;2.80;;;1.60;;
6207;SDS011;3137;51.550;7.060;2022-09-09T04:29:13;1.90;;;1.80;;
6207;SDS011;3137;51.550;7.060;2022-09-09T04:31:40;2.33;;;2.13;;
6207;SDS011;3137;51.550;7.060;2022-09-09T04:34:08;2.13;;;2.03;;
6207;SDS011;3137;51.550;7.060;2022-09-09T04:36:35;2.50;;;2.30;;
6207;SDS011;3137;51.550;7.060;2022-09-09T04:39:04;5.23;;;2.07;;
6207;SDS011;3137;51.550;7.060;2022-09-09T04:41:30;4.47;;;2.27;;
6207;SDS011;3137;51.550;7.060;2022-09-09T04:43:57;2.73;;;2.63;;
6207;SDS011;3137;51.550;7.060;2022-09-09T04:46:25;2.53;;;2.33;;
6207;SDS011;3137;51.550;7.060;2022-09-09T04:48:52;2.17;;;2.07;;
6207;SDS011;3137;51.550;7.060;2022-09-09T04:51:21;2.93;;;2.73;;
6207;SDS011;3137;51.550;7.060;2022-09-09T04:53:48;6.03;;;2.73;;
6207;SDS011;3137;51.550;7.060;2022-09-09T04:56:17;1.73;;;1.73;;
6207;SDS011;3137;51.550;7.060;2022-09-09T04:58:49;2.27;;;2.10;;
6207;SDS011;3137;51.550;7.060;2022-09-09T05:01:17;2.07;;;2.00;;
6207;SDS011;3137;51.550;7.060;2022-09-09T05:03:47;1.97;;;1.97;;
6207;SDS011;3137;51.550;7.060;2022-09-09T05:06:18;2.40;;;2.20;;
6207;SDS011;3137;51.550;7.060;2022-09-09T05:08:46;3.33;;;1.73;;
6207;SDS011;3137;51.550;7.060;2022-09-09T05:11:17;1.77;;;1.67;;
6207;SDS011;3137;51.550;7.060;2022-09-09T05:13:52;1.77;;;1.77;;
6207;SDS011;3137;51.550;7.060;2022-09-09T05:16:19;1.67;;;1.53;;
6207;SDS011;3137;51.550;7.060;2022-09-09T05:18:47;3.63;;;2.03;;
6207;SDS011;3137;51.550;7.060;2022-09-09T05:21:14;5.20;;;2.00;;
6207;SDS011;3137;51.550;7.060;2022-09-09T05:23:41;2.47;;;2.27;;
6207;SDS011;3137;51.550;7.060;2022-09-09T05:26:11;4.23;;;2.10;;
6207;SDS011;3137;51.550;7.060;2022-09-09T05:28:45;1.87;;;1.87;;
6207;SDS011;3137;51.550;7.060;2022-09-09T05:31:12;4.30;;;3.80;;
6207;SDS011;3137;51.550;7.060;2022-09-09T05:33:40;8.93;;;3.73;;
6207;SDS011;3137;51.550;7.060;2022-09-09T05:36:10;3.37;;;3.27;;
6207;SDS011;3137;51.550;7.060;2022-09-09T05:38:41;2.77;;;2.67;;
6207;SDS011;3137;51.550;7.060;2022-09-09T05:41:07;2.33;;;2.10;;
6207;SDS011;3137;51.550;7.060;2022-09-09T05:43:37;2.10;;;2.00;;
6207;SDS011;3137;51.550;7.060;2022-09-09T05:46:05;1.77;;;1.77;;
6207;SDS011;3137;51.550;7.060;2022-09-09T05:48:32;2.03;;;1.90;;
6207;SDS011;3137;51.550;7.060;2022-09-09T05:51:00;2.87;;;2.70;;
6207;SDS011;3137;51.550;7.060;2022-09-09T05:53:29;1.67;;;1.67;;
6207;SDS011;3137;51.550;7.060;2022-09-09T05:56:03;4.13;;;2.43;;
6207;SDS011;3137;51.550;7.060;2022-09-09T05:58:32;1.73;;;1.73;;
6207;SDS011;3137;51.550;7.060;2022-09-09T06:01:03;2.20;;;2.20;;
6207;SDS011;3137;51.550;7.060;2022-09-09T06:03:31;2.83;;;2.30;;
6207;SDS011;3137;51.550;7.060;2022-09-09T06:06:01;2.10;;;2.00;;
6207;SDS011;3137;51.550;7.060;2022-09-09T06:08:32;5.73;;;2.50;;
6207;SDS011;3137;51.550;7.060;2022-09-09T06:11:03;2.20;;;1.97;;
6207;SDS011;3137;51.550;7.060;2022-09-09T06:13:32;2.47;;;2.27;;
6207;SDS011;3137;51.550;7.060;2022-09-09T06:15:58;2.73;;;2.47;;
6207;SDS011;3137;51.550;7.060;2022-09-09T06:18:26;4.70;;;2.23;;
6207;SDS011;3137;51.550;7.060;2022-09-09T06:20:56;1.97;;;1.70;;
6207;SDS011;3137;51.550;7.060;2022-09-09T06:23:23;2.03;;;1.93;;
6207;SDS011;3137;51.550;7.060;2022-09-09T06:25:51;5.93;;;1.77;;
6207;SDS011;3137;51.550;7.060;2022-09-09T06:28:18;4.60;;;2.67;;
6207;SDS011;3137;51.550;7.060;2022-09-09T06:30:45;2.77;;;2.37;;
6207;SDS011;3137;51.550;7.060;2022-09-09T06:33:11;3.33;;;3.10;;
6207;SDS011;3137;51.550;7.060;2022-09-09T06:35:38;2.00;;;1.90;;
6207;SDS011;3137;51.550;7.060;2022-09-09T06:38:04;6.60;;;2.40;;
6207;SDS011;3137;51.550;7.060;2022-09-09T06:40:31;2.17;;;2.03;;
6207;SDS011;3137;51.550;7.060;2022-09-09T06:43:01;6.40;;;1.97;;
6207;SDS011;3137;51.550;7.060;2022-09-09T06:45:33;6.07;;;2.63;;
6207;SDS011;3137;51.550;7.060;2022-09-09T06:48:02;6.23;;;1.90;;
6207;SDS011;3137;51.550;7.060;2022-09-09T06:50:29;4.07;;;1.87;;
6207;SDS011;3137;51.550;7.060;2022-09-09T06:52:56;3.00;;;2.80;;
6207;SDS011;3137;51.550;7.060;2022-09-09T06:55:23;3.00;;;2.20;;
6207;SDS011;3137;51.550;7.060;2022-09-09T06:57:50;5.03;;;2.30;;
6207;SDS011;3137;51.550;7.060;2022-09-09T07:00:21;3.27;;;2.10;;
6207;SDS011;3137;51.550;7.060;2022-09-09T07:02:47;2.23;;;2.13;;
6207;SDS011;3137;51.550;7.060;2022-09-09T07:05:14;2.70;;;2.50;;
6207;SDS011;3137;51.550;7.060;2022-09-09T07:07:42;1.90;;;1.67;;
6207;SDS011;3137;51.550;7.060;2022-09-09T07:10:10;2.33;;;2.10;;
6207;SDS011;3137;51.550;7.060;2022-09-09T07:12:37;2.57;;;2.30;;
6207;SDS011;3137;51.550;7.060;2022-09-09T07:15:04;2.00;;;1.87;;
6207;SDS011;3137;51.550;7.060;2022-09-09T07:17:31;2.90;;;2.20;;
6207;SDS011;3137;51.550;7.060;2022-09-09T07:19:58;3.47;;;2.40;;
6207;SDS011;3137;51.550;7.060;2022-09-09T07:22:27;1.77;;;1.77;;
6207;SDS011;3137;51.550;7.060;2022-09-09T07:24:53;3.13;;;2.20;;
6207;SDS011;3137;51.550;7.060;2022-09-09T07:27:20;3.97;;;2.00;;
6207;SDS011;3137;51.550;7.060;2022-09-09T07:29:47;2.00;;;1.90;;
6207;SDS011;3137;51.550;7.060;2022-09-09T07:32:14;1.90;;;1.80;;
6207;SDS011;3137;51.550;7.060;2022-09-09T07:34:41;5.87;;;2.17;;
6207;SDS011;3137;51.550;7.060;2022-09-09T07:37:08;7.73;;;2.33;;
6207;SDS011;3137;51.550;7.060;2022-09-09T07:39:40;1.80;;;1.70;;
6207;SDS011;3137;51.550;7.060;2022-09-09T07:42:07;6.10;;;2.00;;
6207;SDS011;3137;51.550;7.060;2022-09-09T07:44:36;2.77;;;2.27;;
6207;SDS011;3137;51.550;7.060;2022-09-09T07:47:07;2.47;;;2.20;;
6207;SDS011;3137;51.550;7.060;2022-09-09T07:49:37;1.97;;;1.87;;
6207;SDS011;3137;51.550;7.060;2022-09-09T07:52:06;2.77;;;1.70;;
6207;SDS011;3137;51.550;7.060;2022-09-09T07:54:40;1.57;;;1.47;;
6207;SDS011;3137;51.550;7.060;2022-09-09T07:57:08;3.00;;;1.50;;
6207;SDS011;3137;51.550;7.060;2022-09-09T07:59:36;1.90;;;1.90;;
6207;SDS011;3137;51.550;7.060;2022-09-09T08:02:02;1.67;;;1.60;;
6207;SDS011;3137;51.550;7.060;2022-09-09T08:04:31;2.50;;;2.30;;
6207;SDS011;3137;51.550;7.060;2022-09-09T08:06:59;2.50;;;1.57;;
6207;SDS011;3137;51.550;7.060;2022-09-09T08:09:28;3.47;;;1.40;;
6207;SDS011;3137;51.550;7.060;2022-09-09T08:12:11;6.97;;;1.67;;
6207;SDS011;3137;51.550;7.060;2022-09-09T08:14:39;2.60;;;1.67;;
6207;SDS011;3137;51.550;7.060;2022-09-09T08:17:06;1.30;;;1.30;;
6207;SDS011;3137;51.550;7.060;2022-09-09T08:19:32;1.33;;;1.33;;
6207;SDS011;3137;51.550;7.060;2022-09-09T08:22:04;2.20;;;1.43;;
6207;SDS011;3137;51.550;7.060;2022-09-09T08:24:32;1.50;;;1.40;;
6207;SDS011;3137;51.550;7.060;2022-09-09T08:26:58;3.20;;;1.90;;
6207;SDS011;3137;51.550;7.060;2022-09-09T08:29:26;2.00;;;1.30;;
6207;SDS011;3137;51.550;7.060;2022-09-09T08:31:55;2.53;;;1.13;;
6207;SDS011;3137;51.550;7.060;2022-09-09T08:34:24;1.73;;;1.73;;
6207;SDS011;3137;51.550;7.060;2022-09-09T08:36:53;3.23;;;1.40;;
6207;SDS011;3137;51.550;7.060;2022-09-09T08:39:26;1.10;;;1.10;;
6207;SDS011;3137;51.550;7.060;2022-09-09T08:52:55;1.30;;;1.30;;
6207;SDS011;3137;51.550;7.060;2022-09-09T08:58:45;1.37;;;1.37;;
6207;SDS011;3137;51.550;7.060;2022-09-09T09:01:00;3.03;;;1.77;;
6207;SDS011;3137;51.550;7.060;2022-09-09T09:03:33;3.17;;;1.60;;
6207;SDS011;3137;51.550;7.060;2022-09-09T09:08:46;1.73;;;1.30;;
6207;SDS011;3137;51.550;7.060;2022-09-09T09:11:17;2.23;;;1.20;;
6207;SDS011;3137;51.550;7.060;2022-09-09T09:19:13;2.13;;;1.60;;
6207;SDS011;3137;51.550;7.060;2022-09-09T09:21:42;2.00;;;1.20;;
6207;SDS011;3137;51.550;7.060;2022-09-09T09:24:16;1.20;;;1.10;;
6207;SDS011;3137;51.550;7.060;2022-09-09T09:26:48;1.50;;;1.50;;
6207;SDS011;3137;51.550;7.060;2022-09-09T09:29:17;1.43;;;1.40;;
6207;SDS011;3137;51.550;7.060;2022-09-09T09:31:48;5.23;;;1.40;;
6207;SDS011;3137;51.550;7.060;2022-09-09T09:34:23;1.17;;;1.17;;
6207;SDS011;3137;51.550;7.060;2022-09-09T09:36:57;1.40;;;1.33;;
6207;SDS011;3137;51.550;7.060;2022-09-09T09:39:31;1.23;;;1.23;;
6207;SDS011;3137;51.550;7.060;2022-09-09T09:42:22;1.37;;;1.37;;
6207;SDS011;3137;51.550;7.060;2022-09-09T09:44:52;1.30;;;1.23;;
6207;SDS011;3137;51.550;7.060;2022-09-09T09:47:21;1.70;;;1.60;;
6207;SDS011;3137;51.550;7.060;2022-09-09T09:50:15;1.80;;;1.80;;
6207;SDS011;3137;51.550;7.060;2022-09-09T09:52:51;2.30;;;1.67;;
6207;SDS011;3137;51.550;7.060;2022-09-09T09:55:20;1.57;;;1.57;;
6207;SDS011;3137;51.550;7.060;2022-09-09T09:57:48;5.63;;;1.50;;
6207;SDS011;3137;51.550;7.060;2022-09-09T10:00:18;1.33;;;1.33;;
6207;SDS011;3137;51.550;7.060;2022-09-09T10:02:59;1.60;;;1.60;;
6207;SDS011;3137;51.550;7.060;2022-09-09T10:05:29;1.97;;;1.87;;
6207;SDS011;3137;51.550;7.060;2022-09-09T10:08:10;4.43;;;1.57;;
6207;SDS011;3137;51.550;7.060;2022-09-09T10:13:34;1.70;;;1.67;;
6207;SDS011;3137;51.550;7.060;2022-09-09T10:22:12;1.57;;;1.50;;
6207;SDS011;3137;51.550;7.060;2022-09-09T10:40:32;2.17;;;1.43;;
6207;SDS011;3137;51.550;7.060;2022-09-09T10:43:02;1.27;;;1.17;;
6207;SDS011;3137;51.550;7.060;2022-09-09T10:46:28;1.10;;;1.10;;
6207;SDS011;3137;51.550;7.060;2022-09-09T10:49:03;1.80;;;1.33;;
6207;SDS011;3137;51.550;7.060;2022-09-09T10:54:20;1.17;;;1.17;;
6207;SDS011;3137;51.550;7.060;2022-09-09T10:56:49;1.07;;;1.07;;
6207;SDS011;3137;51.550;7.060;2022-09-09T10:59:20;1.73;;;0.97;;
6207;SDS011;3137;51.550;7.060;2022-09-09T11:01:54;1.00;;;1.00;;
6207;SDS011;3137;51.550;7.060;2022-09-09T11:04:27;1.03;;;1.03;;
6207;SDS011;3137;51.550;7.060;2022-09-09T11:06:57;1.20;;;1.10;;
6207;SDS011;3137;51.550;7.060;2022-09-09T11:09:26;1.10;;;1.10;;
6207;SDS011;3137;51.550;7.060;2022-09-09T11:11:57;1.40;;;1.40;;
6207;SDS011;3137;51.550;7.060;2022-09-09T11:14:47;1.47;;;1.40;;
6207;SDS011;3137;51.550;7.060;2022-09-09T11:17:16;1.47;;;1.47;;
6207;SDS011;3137;51.550;7.060;2022-09-09T11:19:44;1.23;;;1.23;;
6207;SDS011;3137;51.550;7.060;2022-09-09T11:24:59;0.97;;;0.97;;
6207;SDS011;3137;51.550;7.060;2022-09-09T11:27:30;1.20;;;1.20;;
6207;SDS011;3137;51.550;7.060;2022-09-09T11:30:22;1.83;;;1.73;;
6207;SDS011;3137;51.550;7.060;2022-09-09T11:33:25;2.43;;;1.00;;
6207;SDS011;3137;51.550;7.060;2022-09-09T11:35:58;3.50;;;1.37;;
6207;SDS011;3137;51.550;7.060;2022-09-09T11:38:56;1.43;;;1.43;;
6207;SDS011;3137;51.550;7.060;2022-09-09T11:41:20;1.50;;;1.40;;
6207;SDS011;3137;51.550;7.060;2022-09-09T11:43:50;1.63;;;1.60;;
6207;SDS011;3137;51.550;7.060;2022-09-09T11:46:31;1.20;;;1.20;;
6207;SDS011;3137;51.550;7.060;2022-09-09T11:49:03;1.10;;;1.00;;
6207;SDS011;3137;51.550;7.060;2022-09-09T11:51:30;3.23;;;1.63;;
6207;SDS011;3137;51.550;7.060;2022-09-09T11:54:01;1.40;;;1.40;;
6207;SDS011;3137;51.550;7.060;2022-09-09T11:56:48;6.97;;;1.30;;
6207;SDS011;3137;51.550;7.060;2022-09-09T11:59:24;1.57;;;1.57;;
6207;SDS011;3137;51.550;7.060;2022-09-09T12:02:03;1.10;;;1.10;;
6207;SDS011;3137;51.550;7.060;2022-09-09T12:04:36;1.00;;;1.00;;
6207;SDS011;3137;51.550;7.060;2022-09-09T12:10:25;2.53;;;1.20;;
6207;SDS011;3137;51.550;7.060;2022-09-09T12:12:52;9.43;;;1.20;;
6207;SDS011;3137;51.550;7.060;2022-09-09T12:15:23;4.40;;;1.43;;
6207;SDS011;3137;51.550;7.060;2022-09-09T12:17:55;2.33;;;1.23;;
6207;SDS011;3137;51.550;7.060;2022-09-09T12:20:33;3.07;;;1.40;;
6207;SDS011;3137;51.550;7.060;2022-09-09T12:28:15;2.47;;;1.30;;
6207;SDS011;3137;51.550;7.060;2022-09-09T12:33:11;1.63;;;1.63;;
6207;SDS011;3137;51.550;7.060;2022-09-09T12:35:39;1.60;;;1.50;;
6207;SDS011;3137;51.550;7.060;2022-09-09T12:38:12;1.67;;;1.57;;
6207;SDS011;3137;51.550;7.060;2022-09-09T12:40:39;3.13;;;1.10;;
6207;SDS011;3137;51.550;7.060;2022-09-09T12:43:19;1.20;;;1.20;;
6207;SDS011;3137;51.550;7.060;2022-09-09T12:45:48;1.50;;;1.07;;
6207;SDS011;3137;51.550;7.060;2022-09-09T12:48:24;1.20;;;1.20;;
6207;SDS011;3137;51.550;7.060;2022-09-09T12:50:57;1.47;;;1.47;;
6207;SDS011;3137;51.550;7.060;2022-09-09T12:55:56;1.83;;;1.10;;
6207;SDS011;3137;51.550;7.060;2022-09-09T12:58:29;1.30;;;1.30;;
6207;SDS011;3137;51.550;7.060;2022-09-09T13:00:59;3.27;;;1.43;;
6207;SDS011;3137;51.550;7.060;2022-09-09T13:03:28;1.53;;;1.43;;
6207;SDS011;3137;51.550;7.060;2022-09-09T13:05:57;1.10;;;1.10;;
6207;SDS011;3137;51.550;7.060;2022-09-09T13:08:26;1.80;;;1.30;;
6207;SDS011;3137;51.550;7.060;2022-09-09T13:10:54;2.13;;;1.47;;
6207;SDS011;3137;51.550;7.060;2022-09-09T13:13:35;3.33;;;1.40;;
6207;SDS011;3137;51.550;7.060;2022-09-09T13:16:02;4.10;;;1.80;;
6207;SDS011;3137;51.550;7.060;2022-09-09T13:18:33;3.50;;;2.33;;
6207;SDS011;3137;51.550;7.060;2022-09-09T13:21:02;4.20;;;1.90;;
6207;SDS011;3137;51.550;7.060;2022-09-09T13:23:30;2.43;;;1.50;;
6207;SDS011;3137;51.550;7.060;2022-09-09T13:25:59;1.73;;;1.63;;
6207;SDS011;3137;51.550;7.060;2022-09-09T13:28:28;1.70;;;1.50;;
6207;SDS011;3137;51.550;7.060;2022-09-09T13:31:03;4.90;;;1.87;;
6207;SDS011;3137;51.550;7.060;2022-09-09T13:33:33;1.83;;;1.73;;
6207;SDS011;3137;51.550;7.060;2022-09-09T13:36:04;1.90;;;1.90;;
6207;SDS011;3137;51.550;7.060;2022-09-09T13:38:36;8.73;;;1.83;;
6207;SDS011;3137;51.550;7.060;2022-09-09T13:41:05;2.20;;;1.93;;
6207;SDS011;3137;51.550;7.060;2022-09-09T13:43:44;1.87;;;1.77;;
6207;SDS011;3137;51.550;7.060;2022-09-09T13:48:56;1.63;;;1.53;;
6207;SDS011;3137;51.550;7.060;2022-09-09T13:54:01;3.60;;;1.40;;
6207;SDS011;3137;51.550;7.060;2022-09-09T13:56:27;2.03;;;1.93;;
6207;SDS011;3137;51.550;7.060;2022-09-09T13:58:53;1.73;;;1.60;;
6207;SDS011;3137;51.550;7.060;2022-09-09T14:01:20;1.53;;;1.50;;
6207;SDS011;3137;51.550;7.060;2022-09-09T14:03:46;1.53;;;1.40;;
6207;SDS011;3137;51.550;7.060;2022-09-09T14:06:13;1.40;;;1.30;;
6207;SDS011;3137;51.550;7.060;2022-09-09T14:08:39;1.70;;;1.60;;
6207;SDS011;3137;51.550;7.060;2022-09-09T14:11:07;1.60;;;1.50;;
6207;SDS011;3137;51.550;7.060;2022-09-09T14:13:38;2.50;;;2.17;;
6207;SDS011;3137;51.550;7.060;2022-09-09T14:16:04;1.80;;;1.80;;
6207;SDS011;3137;51.550;7.060;2022-09-09T14:18:31;1.43;;;1.43;;
6207;SDS011;3137;51.550;7.060;2022-09-09T14:20:58;9.63;;;1.80;;
6207;SDS011;3137;51.550;7.060;2022-09-09T14:23:24;1.60;;;1.50;;
6207;SDS011;3137;51.550;7.060;2022-09-09T14:25:51;2.07;;;1.57;;
6207;SDS011;3137;51.550;7.060;2022-09-09T14:28:17;1.53;;;1.53;;
6207;SDS011;3137;51.550;7.060;2022-09-09T14:31:04;1.20;;;1.10;;
6207;SDS011;3137;51.550;7.060;2022-09-09T14:33:31;7.00;;;1.20;;
6207;SDS011;3137;51.550;7.060;2022-09-09T14:36:02;1.80;;;1.40;;
6207;SDS011;3137;51.550;7.060;2022-09-09T14:38:33;1.40;;;1.40;;
6207;SDS011;3137;51.550;7.060;2022-09-09T14:41:05;3.53;;;1.30;;
6207;SDS011;3137;51.550;7.060;2022-09-09T14:43:32;1.33;;;1.33;;
6207;SDS011;3137;51.550;7.060;2022-09-09T14:46:05;3.63;;;1.47;;
6207;SDS011;3137;51.550;7.060;2022-09-09T14:48:33;1.60;;;1.60;;
6207;SDS011;3137;51.550;7.060;2022-09-09T14:51:13;1.23;;;1.23;;
6207;SDS011;3137;51.550;7.060;2022-09-09T14:53:39;3.07;;;2.40;;
6207;SDS011;3137;51.550;7.060;2022-09-09T14:56:06;2.93;;;1.50;;
6207;SDS011;3137;51.550;7.060;2022-09-09T14:58:33;1.50;;;1.50;;
6207;SDS011;3137;51.550;7.060;2022-09-09T15:01:04;1.27;;;1.20;;
6207;SDS011;3137;51.550;7.060;2022-09-09T15:03:31;1.20;;;1.20;;
6207;SDS011;3137;51.550;7.060;2022-09-09T15:05:58;1.80;;;1.60;;
6207;SDS011;3137;51.550;7.060;2022-09-09T15:08:24;2.43;;;1.63;;
6207;SDS011;3137;51.550;7.060;2022-09-09T15:10:58;1.63;;;1.57;;
6207;SDS011;3137;51.550;7.060;2022-09-09T15:13:24;0.90;;;0.90;;
6207;SDS011;3137;51.550;7.060;2022-09-09T15:15:51;1.10;;;1.10;;
6207;SDS011;3137;51.550;7.060;2022-09-09T15:18:18;1.40;;;1.40;;
6207;SDS011;3137;51.550;7.060;2022-09-09T15:20:44;1.90;;;1.90;;
6207;SDS011;3137;51.550;7.060;2022-09-09T15:23:12;1.27;;;1.27;;
6207;SDS011;3137;51.550;7.060;2022-09-09T15:25:38;1.30;;;1.30;;
6207;SDS011;3137;51.550;7.060;2022-09-09T15:28:05;1.33;;;1.33;;
6207;SDS011;3137;51.550;7.060;2022-09-09T15:30:31;1.20;;;1.20;;
6207;SDS011;3137;51.550;7.060;2022-09-09T15:32:57;2.77;;;1.47;;
6207;SDS011;3137;51.550;7.060;2022-09-09T15:35:24;1.77;;;1.20;;
6207;SDS011;3137;51.550;7.060;2022-09-09T15:37:50;1.00;;;1.00;;
6207;SDS011;3137;51.550;7.060;2022-09-09T15:40:16;1.10;;;1.10;;
6207;SDS011;3137;51.550;7.060;2022-09-09T15:42:44;0.90;;;0.90;;
6207;SDS011;3137;51.550;7.060;2022-09-09T15:45:11;1.13;;;1.13;;
6207;SDS011;3137;51.550;7.060;2022-09-09T15:47:38;0.93;;;0.93;;
6207;SDS011;3137;51.550;7.060;2022-09-09T15:50:05;1.07;;;1.07;;
6207;SDS011;3137;51.550;7.060;2022-09-09T15:52:32;0.90;;;0.90;;
6207;SDS011;3137;51.550;7.060;2022-09-09T15:54:59;2.20;;;1.33;;
6207;SDS011;3137;51.550;7.060;2022-09-09T15:57:26;1.07;;;1.07;;
6207;SDS011;3137;51.550;7.060;2022-09-09T15:59:53;1.10;;;1.10;;
6207;SDS011;3137;51.550;7.060;2022-09-09T16:02:19;1.37;;;1.37;;
6207;SDS011;3137;51.550;7.060;2022-09-09T16:04:46;0.93;;;0.93;;
6207;SDS011;3137;51.550;7.060;2022-09-09T16:07:12;0.90;;;0.90;;
6207;SDS011;3137;51.550;7.060;2022-09-09T16:09:39;1.33;;;1.30;;
6207;SDS011;3137;51.550;7.060;2022-09-09T16:12:05;1.13;;;1.13;;
6207;SDS011;3137;51.550;7.060;2022-09-09T16:14:32;1.17;;;1.17;;
6207;SDS011;3137;51.550;7.060;2022-09-09T16:17:02;1.50;;;1.30;;
6207;SDS011;3137;51.550;7.060;2022-09-09T16:19:29;3.13;;;1.33;;
6207;SDS011;3137;51.550;7.060;2022-09-09T16:21:55;1.70;;;1.70;;
6207;SDS011;3137;51.550;7.060;2022-09-09T16:24:22;1.10;;;1.10;;
6207;SDS011;3137;51.550;7.060;2022-09-09T16:26:50;1.13;;;0.93;;
6207;SDS011;3137;51.550;7.060;2022-09-09T16:29:17;1.00;;;1.00;;
6207;SDS011;3137;51.550;7.060;2022-09-09T16:31:45;1.10;;;1.10;;
6207;SDS011;3137;51.550;7.060;2022-09-09T16:34:13;1.30;;;1.30;;
6207;SDS011;3137;51.550;7.060;2022-09-09T16:36:41;1.20;;;1.10;;
6207;SDS011;3137;51.550;7.060;2022-09-09T16:39:09;1.40;;;1.20;;
6207;SDS011;3137;51.550;7.060;2022-09-09T16:41:41;2.87;;;1.10;;
6207;SDS011;3137;51.550;7.060;2022-09-09T16:44:10;1.30;;;1.30;;
6207;SDS011;3137;51.550;7.060;2022-09-09T16:46:37;1.20;;;1.20;;
6207;SDS011;3137;51.550;7.060;2022-09-09T16:49:06;0.83;;;0.83;;
6207;SDS011;3137;51.550;7.060;2022-09-09T16:51:35;6.53;;;1.70;;
6207;SDS011;3137;51.550;7.060;2022-09-09T16:54:04;1.33;;;1.33;;
6207;SDS011;3137;51.550;7.060;2022-09-09T16:56:33;1.30;;;1.30;;
6207;SDS011;3137;51.550;7.060;2022-09-09T16:59:04;2.20;;;1.20;;
6207;SDS011;3137;51.550;7.060;2022-09-09T17:01:33;1.43;;;1.33;;
6207;SDS011;3137;51.550;7.060;2022-09-09T17:04:04;1.10;;;1.10;;
6207;SDS011;3137;51.550;7.060;2022-09-09T17:06:33;1.27;;;1.27;;
6207;SDS011;3137;51.550;7.060;2022-09-09T17:09:08;1.13;;;1.07;;
6207;SDS011;3137;51.550;7.060;2022-09-09T17:11:39;2.93;;;1.50;;
6207;SDS011;3137;51.550;7.060;2022-09-09T17:14:06;2.20;;;1.67;;
6207;SDS011;3137;51.550;7.060;2022-09-09T17:16:33;1.33;;;1.10;;
6207;SDS011;3137;51.550;7.060;2022-09-09T17:19:00;1.50;;;1.50;;